sensor_id;sensor_type;location;lat;lon;timestamp;P1;durP1;ratioP1;P2;durP2;ratioP2
10313;SDS011;5202;49.138;10.090;2023-03-19T00:01:05;4.63;;;4.13;;
10313;SDS011;5202;49.138;10.090;2023-03-19T00:03:35;5.43;;;4.30;;
10313;SDS011;5202;49.138;10.090;2023-03-19T00:06:04;6.47;;;4.30;;
10313;SDS011;5202;49.138;10.090;2023-03-19T00:08:33;7.87;;;4.83;;
10313;SDS011;5202;49.138;10.090;2023-03-19T00:11:05;5.23;;;4.13;;
10313;SDS011;5202;49.138;10.090;2023-03-19T00:13:35;8.07;;;4.33;;
10313;SDS011;5202;49.138;10.090;2023-03-19T00:16:03;6.17;;;4.10;;
10313;SDS011;5202;49.138;10.090;2023-03-19T00:18:32;6.60;;;4.47;;
10313;SDS011;5202;49.138;10.090;2023-03-19T00:21:00;7.53;;;4.83;;
10313;SDS011;5202;49.138;10.090;2023-03-19T00:23:29;8.80;;;5.37;;
10313;SDS011;5202;49.138;10.090;2023-03-19T00:26:00;7.97;;;4.90;;
10313;SDS011;5202;49.138;10.090;2023-03-19T00:28:31;6.33;;;4.87;;
10313;SDS011;5202;49.138;10.090;2023-03-19T00:31:06;9.23;;;5.33;;
10313;SDS011;5202;49.138;10.090;2023-03-19T00:33:35;6.93;;;4.90;;
10313;SDS011;5202;49.138;10.090;2023-03-19T00:36:04;5.97;;;4.53;;
10313;SDS011;5202;49.138;10.090;2023-03-19T00:38:34;8.63;;;5.07;;
10313;SDS011;5202;49.138;10.090;2023-03-19T00:41:02;6.73;;;4.70;;
10313;SDS011;5202;49.138;10.090;2023-03-19T00:43:34;7.13;;;4.50;;
10313;SDS011;5202;49.138;10.090;2023-03-19T00:46:02;5.90;;;4.50;;
10313;SDS011;5202;49.138;10.090;2023-03-19T00:48:31;7.57;;;4.60;;
10313;SDS011;5202;49.138;10.090;2023-03-19T00:51:01;6.63;;;4.27;;
10313;SDS011;5202;49.138;10.090;2023-03-19T00:53:30;6.10;;;4.43;;
10313;SDS011;5202;49.138;10.090;2023-03-19T00:55:59;5.73;;;4.33;;
10313;SDS011;5202;49.138;10.090;2023-03-19T00:58:27;4.80;;;4.00;;
10313;SDS011;5202;49.138;10.090;2023-03-19T01:00:57;7.03;;;4.07;;
10313;SDS011;5202;49.138;10.090;2023-03-19T01:03:26;6.80;;;4.70;;
10313;SDS011;5202;49.138;10.090;2023-03-19T01:05:54;6.50;;;4.40;;
10313;SDS011;5202;49.138;10.090;2023-03-19T01:08:24;5.93;;;4.37;;
10313;SDS011;5202;49.138;10.090;2023-03-19T01:10:52;6.43;;;4.53;;
10313;SDS011;5202;49.138;10.090;2023-03-19T01:13:21;5.30;;;4.00;;
10313;SDS011;5202;49.138;10.090;2023-03-19T01:15:51;5.97;;;4.10;;
10313;SDS011;5202;49.138;10.090;2023-03-19T01:18:22;7.13;;;4.80;;
10313;SDS011;5202;49.138;10.090;2023-03-19T01:20:50;8.27;;;4.33;;
10313;SDS011;5202;49.138;10.090;2023-03-19T01:23:19;5.00;;;3.97;;
10313;SDS011;5202;49.138;10.090;2023-03-19T01:25:47;7.43;;;4.40;;
10313;SDS011;5202;49.138;10.090;2023-03-19T01:28:17;8.10;;;5.10;;
10313;SDS011;5202;49.138;10.090;2023-03-19T01:30:47;7.87;;;5.27;;
10313;SDS011;5202;49.138;10.090;2023-03-19T01:33:36;10.07;;;5.33;;
10313;SDS011;5202;49.138;10.090;2023-03-19T01:36:23;7.17;;;5.47;;
10313;SDS011;5202;49.138;10.090;2023-03-19T01:38:59;8.63;;;5.10;;
10313;SDS011;5202;49.138;10.090;2023-03-19T01:41:28;4.40;;;4.00;;
10313;SDS011;5202;49.138;10.090;2023-03-19T01:47:18;5.93;;;4.30;;
10313;SDS011;5202;49.138;10.090;2023-03-19T01:50:20;5.87;;;4.10;;
10313;SDS011;5202;49.138;10.090;2023-03-19T01:53:12;5.77;;;4.27;;
10313;SDS011;5202;49.138;10.090;2023-03-19T01:55:48;7.13;;;4.60;;
10313;SDS011;5202;49.138;10.090;2023-03-19T01:58:48;5.97;;;4.03;;
10313;SDS011;5202;49.138;10.090;2023-03-19T02:01:42;6.23;;;4.47;;
10313;SDS011;5202;49.138;10.090;2023-03-19T02:04:16;6.43;;;4.03;;
10313;SDS011;5202;49.138;10.090;2023-03-19T02:06:47;7.20;;;4.03;;
10313;SDS011;5202;49.138;10.090;2023-03-19T02:09:16;5.93;;;4.13;;
10313;SDS011;5202;49.138;10.090;2023-03-19T02:11:45;5.53;;;4.40;;
10313;SDS011;5202;49.138;10.090;2023-03-19T02:14:14;5.40;;;4.23;;
10313;SDS011;5202;49.138;10.090;2023-03-19T02:16:43;6.90;;;4.20;;
10313;SDS011;5202;49.138;10.090;2023-03-19T02:19:12;6.07;;;4.17;;
10313;SDS011;5202;49.138;10.090;2023-03-19T02:21:47;6.63;;;4.60;;
10313;SDS011;5202;49.138;10.090;2023-03-19T02:24:18;6.30;;;4.87;;
10313;SDS011;5202;49.138;10.090;2023-03-19T02:27:03;7.57;;;4.13;;
10313;SDS011;5202;49.138;10.090;2023-03-19T02:29:37;5.20;;;4.30;;
10313;SDS011;5202;49.138;10.090;2023-03-19T02:32:05;6.50;;;4.83;;
10313;SDS011;5202;49.138;10.090;2023-03-19T02:34:35;6.03;;;4.27;;
10313;SDS011;5202;49.138;10.090;2023-03-19T02:37:08;5.40;;;4.50;;
10313;SDS011;5202;49.138;10.090;2023-03-19T02:39:45;4.47;;;4.03;;
10313;SDS011;5202;49.138;10.090;2023-03-19T02:42:22;5.30;;;3.90;;
10313;SDS011;5202;49.138;10.090;2023-03-19T02:44:55;5.87;;;4.33;;
10313;SDS011;5202;49.138;10.090;2023-03-19T02:47:24;5.87;;;4.20;;
10313;SDS011;5202;49.138;10.090;2023-03-19T02:49:53;5.67;;;4.20;;
10313;SDS011;5202;49.138;10.090;2023-03-19T02:52:21;7.13;;;4.30;;
10313;SDS011;5202;49.138;10.090;2023-03-19T02:54:55;6.37;;;4.30;;
10313;SDS011;5202;49.138;10.090;2023-03-19T02:57:25;6.10;;;4.00;;
10313;SDS011;5202;49.138;10.090;2023-03-19T02:59:53;8.20;;;4.27;;
10313;SDS011;5202;49.138;10.090;2023-03-19T03:02:22;5.87;;;4.27;;
10313;SDS011;5202;49.138;10.090;2023-03-19T03:05:14;9.40;;;5.40;;
10313;SDS011;5202;49.138;10.090;2023-03-19T03:07:43;5.50;;;4.73;;
10313;SDS011;5202;49.138;10.090;2023-03-19T03:10:11;6.30;;;4.83;;
10313;SDS011;5202;49.138;10.090;2023-03-19T03:12:41;6.03;;;3.70;;
10313;SDS011;5202;49.138;10.090;2023-03-19T03:15:09;11.43;;;5.00;;
10313;SDS011;5202;49.138;10.090;2023-03-19T03:17:39;6.43;;;4.80;;
10313;SDS011;5202;49.138;10.090;2023-03-19T03:20:09;6.67;;;4.73;;
10313;SDS011;5202;49.138;10.090;2023-03-19T03:22:39;6.77;;;5.03;;
10313;SDS011;5202;49.138;10.090;2023-03-19T03:25:08;6.17;;;4.67;;
10313;SDS011;5202;49.138;10.090;2023-03-19T03:27:37;7.90;;;4.83;;
10313;SDS011;5202;49.138;10.090;2023-03-19T03:30:08;8.27;;;4.50;;
10313;SDS011;5202;49.138;10.090;2023-03-19T03:32:38;8.57;;;4.53;;
10313;SDS011;5202;49.138;10.090;2023-03-19T03:35:07;8.47;;;4.93;;
10313;SDS011;5202;49.138;10.090;2023-03-19T03:37:36;6.77;;;5.00;;
10313;SDS011;5202;49.138;10.090;2023-03-19T03:40:05;7.57;;;5.20;;
10313;SDS011;5202;49.138;10.090;2023-03-19T03:42:35;6.57;;;5.17;;
10313;SDS011;5202;49.138;10.090;2023-03-19T03:45:08;5.70;;;4.77;;
10313;SDS011;5202;49.138;10.090;2023-03-19T03:47:39;7.70;;;5.07;;
10313;SDS011;5202;49.138;10.090;2023-03-19T03:50:08;11.03;;;5.37;;
10313;SDS011;5202;49.138;10.090;2023-03-19T03:52:39;7.97;;;5.00;;
10313;SDS011;5202;49.138;10.090;2023-03-19T03:55:08;6.70;;;5.00;;
10313;SDS011;5202;49.138;10.090;2023-03-19T03:57:36;7.73;;;5.60;;
10313;SDS011;5202;49.138;10.090;2023-03-19T04:00:05;11.37;;;5.87;;
10313;SDS011;5202;49.138;10.090;2023-03-19T04:02:40;8.80;;;5.43;;
10313;SDS011;5202;49.138;10.090;2023-03-19T04:05:13;6.47;;;5.20;;
10313;SDS011;5202;49.138;10.090;2023-03-19T04:07:41;6.50;;;5.17;;
10313;SDS011;5202;49.138;10.090;2023-03-19T04:10:10;6.60;;;5.10;;
10313;SDS011;5202;49.138;10.090;2023-03-19T04:12:39;8.50;;;5.00;;
10313;SDS011;5202;49.138;10.090;2023-03-19T04:15:11;10.80;;;5.20;;
10313;SDS011;5202;49.138;10.090;2023-03-19T04:17:43;6.50;;;5.00;;
10313;SDS011;5202;49.138;10.090;2023-03-19T04:20:11;6.50;;;4.40;;
10313;SDS011;5202;49.138;10.090;2023-03-19T04:22:41;6.27;;;4.90;;
10313;SDS011;5202;49.138;10.090;2023-03-19T04:25:10;7.07;;;4.77;;
10313;SDS011;5202;49.138;10.090;2023-03-19T04:27:38;6.03;;;4.87;;
10313;SDS011;5202;49.138;10.090;2023-03-19T04:30:08;7.53;;;5.00;;
10313;SDS011;5202;49.138;10.090;2023-03-19T04:32:40;6.23;;;4.43;;
10313;SDS011;5202;49.138;10.090;2023-03-19T04:35:10;6.03;;;4.40;;
10313;SDS011;5202;49.138;10.090;2023-03-19T04:37:38;7.57;;;4.40;;
10313;SDS011;5202;49.138;10.090;2023-03-19T04:40:07;5.30;;;3.97;;
10313;SDS011;5202;49.138;10.090;2023-03-19T04:42:39;5.63;;;4.23;;
10313;SDS011;5202;49.138;10.090;2023-03-19T04:45:18;3.77;;;3.33;;
10313;SDS011;5202;49.138;10.090;2023-03-19T04:47:47;5.47;;;4.10;;
10313;SDS011;5202;49.138;10.090;2023-03-19T04:50:15;7.10;;;3.83;;
10313;SDS011;5202;49.138;10.090;2023-03-19T04:52:44;5.13;;;3.70;;
10313;SDS011;5202;49.138;10.090;2023-03-19T04:55:13;5.67;;;3.63;;
10313;SDS011;5202;49.138;10.090;2023-03-19T04:57:52;6.70;;;3.90;;
10313;SDS011;5202;49.138;10.090;2023-03-19T05:00:26;5.03;;;3.23;;
10313;SDS011;5202;49.138;10.090;2023-03-19T05:02:57;6.90;;;4.00;;
10313;SDS011;5202;49.138;10.090;2023-03-19T05:05:27;6.00;;;3.17;;
10313;SDS011;5202;49.138;10.090;2023-03-19T05:07:56;6.60;;;3.50;;
10313;SDS011;5202;49.138;10.090;2023-03-19T05:10:25;6.57;;;3.23;;
10313;SDS011;5202;49.138;10.090;2023-03-19T05:12:54;6.90;;;3.47;;
10313;SDS011;5202;49.138;10.090;2023-03-19T05:15:23;5.03;;;3.70;;
10313;SDS011;5202;49.138;10.090;2023-03-19T05:18:00;10.17;;;4.03;;
10313;SDS011;5202;49.138;10.090;2023-03-19T05:20:35;5.97;;;3.10;;
10313;SDS011;5202;49.138;10.090;2023-03-19T05:23:09;5.43;;;3.73;;
10313;SDS011;5202;49.138;10.090;2023-03-19T05:25:45;6.50;;;3.70;;
10313;SDS011;5202;49.138;10.090;2023-03-19T05:28:20;5.83;;;3.47;;
10313;SDS011;5202;49.138;10.090;2023-03-19T05:30:48;5.30;;;3.70;;
10313;SDS011;5202;49.138;10.090;2023-03-19T05:33:26;5.83;;;3.73;;
10313;SDS011;5202;49.138;10.090;2023-03-19T05:35:54;6.77;;;3.50;;
10313;SDS011;5202;49.138;10.090;2023-03-19T05:38:38;5.00;;;3.20;;
10313;SDS011;5202;49.138;10.090;2023-03-19T05:41:12;4.20;;;3.50;;
10313;SDS011;5202;49.138;10.090;2023-03-19T05:44:01;5.33;;;3.50;;
10313;SDS011;5202;49.138;10.090;2023-03-19T05:46:52;4.80;;;3.87;;
10313;SDS011;5202;49.138;10.090;2023-03-19T05:49:24;8.23;;;4.13;;
10313;SDS011;5202;49.138;10.090;2023-03-19T05:51:52;5.57;;;3.50;;
10313;SDS011;5202;49.138;10.090;2023-03-19T05:54:22;6.20;;;3.60;;
10313;SDS011;5202;49.138;10.090;2023-03-19T05:56:58;6.50;;;3.93;;
10313;SDS011;5202;49.138;10.090;2023-03-19T05:59:30;8.90;;;4.13;;
10313;SDS011;5202;49.138;10.090;2023-03-19T06:02:13;6.83;;;4.13;;
10313;SDS011;5202;49.138;10.090;2023-03-19T06:04:43;4.20;;;3.80;;
10313;SDS011;5202;49.138;10.090;2023-03-19T06:07:13;9.33;;;4.50;;
10313;SDS011;5202;49.138;10.090;2023-03-19T06:09:41;5.33;;;3.87;;
10313;SDS011;5202;49.138;10.090;2023-03-19T06:12:10;5.37;;;4.13;;
10313;SDS011;5202;49.138;10.090;2023-03-19T06:14:57;4.80;;;3.90;;
10313;SDS011;5202;49.138;10.090;2023-03-19T06:17:56;4.40;;;3.73;;
10313;SDS011;5202;49.138;10.090;2023-03-19T06:20:26;6.17;;;3.63;;
10313;SDS011;5202;49.138;10.090;2023-03-19T06:22:55;6.33;;;3.80;;
10313;SDS011;5202;49.138;10.090;2023-03-19T06:25:23;7.37;;;3.67;;
10313;SDS011;5202;49.138;10.090;2023-03-19T06:27:52;5.70;;;3.20;;
10313;SDS011;5202;49.138;10.090;2023-03-19T06:30:27;6.07;;;3.63;;
10313;SDS011;5202;49.138;10.090;2023-03-19T06:32:58;7.93;;;3.80;;
10313;SDS011;5202;49.138;10.090;2023-03-19T06:35:28;7.07;;;3.47;;
10313;SDS011;5202;49.138;10.090;2023-03-19T06:37:57;4.60;;;3.57;;
10313;SDS011;5202;49.138;10.090;2023-03-19T06:40:25;4.13;;;2.90;;
10313;SDS011;5202;49.138;10.090;2023-03-19T06:42:54;9.33;;;3.43;;
10313;SDS011;5202;49.138;10.090;2023-03-19T06:45:22;4.17;;;3.10;;
10313;SDS011;5202;49.138;10.090;2023-03-19T06:47:51;4.17;;;2.97;;
10313;SDS011;5202;49.138;10.090;2023-03-19T06:50:19;4.93;;;3.27;;
10313;SDS011;5202;49.138;10.090;2023-03-19T06:52:48;6.07;;;3.60;;
10313;SDS011;5202;49.138;10.090;2023-03-19T06:55:17;4.50;;;3.67;;
10313;SDS011;5202;49.138;10.090;2023-03-19T06:57:47;4.93;;;3.23;;
10313;SDS011;5202;49.138;10.090;2023-03-19T07:00:16;4.23;;;3.20;;
10313;SDS011;5202;49.138;10.090;2023-03-19T07:02:46;4.57;;;3.27;;
10313;SDS011;5202;49.138;10.090;2023-03-19T07:05:14;3.40;;;2.50;;
10313;SDS011;5202;49.138;10.090;2023-03-19T07:07:50;3.97;;;2.57;;
10313;SDS011;5202;49.138;10.090;2023-03-19T07:10:19;3.40;;;2.63;;
10313;SDS011;5202;49.138;10.090;2023-03-19T07:12:48;5.17;;;3.00;;
10313;SDS011;5202;49.138;10.090;2023-03-19T07:15:16;6.10;;;3.03;;
10313;SDS011;5202;49.138;10.090;2023-03-19T07:17:46;2.63;;;2.43;;
10313;SDS011;5202;49.138;10.090;2023-03-19T07:20:15;4.77;;;2.87;;
10313;SDS011;5202;49.138;10.090;2023-03-19T07:22:44;5.30;;;2.80;;
10313;SDS011;5202;49.138;10.090;2023-03-19T07:25:14;4.10;;;2.60;;
10313;SDS011;5202;49.138;10.090;2023-03-19T07:27:43;2.97;;;2.43;;
10313;SDS011;5202;49.138;10.090;2023-03-19T07:30:12;4.63;;;2.50;;
10313;SDS011;5202;49.138;10.090;2023-03-19T07:32:41;3.43;;;2.40;;
10313;SDS011;5202;49.138;10.090;2023-03-19T07:35:10;3.97;;;2.60;;
10313;SDS011;5202;49.138;10.090;2023-03-19T07:37:40;3.47;;;2.43;;
10313;SDS011;5202;49.138;10.090;2023-03-19T07:40:09;3.13;;;2.40;;
10313;SDS011;5202;49.138;10.090;2023-03-19T07:42:39;3.83;;;2.73;;
10313;SDS011;5202;49.138;10.090;2023-03-19T07:45:11;5.90;;;2.70;;
10313;SDS011;5202;49.138;10.090;2023-03-19T07:47:39;3.10;;;2.10;;
10313;SDS011;5202;49.138;10.090;2023-03-19T07:50:08;3.03;;;2.33;;
10313;SDS011;5202;49.138;10.090;2023-03-19T07:52:37;4.10;;;2.43;;
10313;SDS011;5202;49.138;10.090;2023-03-19T07:55:06;3.00;;;2.50;;
10313;SDS011;5202;49.138;10.090;2023-03-19T07:57:35;3.50;;;2.80;;
10313;SDS011;5202;49.138;10.090;2023-03-19T08:00:06;3.80;;;2.47;;
10313;SDS011;5202;49.138;10.090;2023-03-19T08:02:39;3.67;;;2.00;;
10313;SDS011;5202;49.138;10.090;2023-03-19T08:05:09;2.83;;;2.20;;
10313;SDS011;5202;49.138;10.090;2023-03-19T08:07:38;3.37;;;2.13;;
10313;SDS011;5202;49.138;10.090;2023-03-19T08:10:09;2.83;;;2.10;;
10313;SDS011;5202;49.138;10.090;2023-03-19T08:12:38;4.17;;;2.00;;
10313;SDS011;5202;49.138;10.090;2023-03-19T08:15:09;3.70;;;2.20;;
10313;SDS011;5202;49.138;10.090;2023-03-19T08:17:38;2.83;;;1.70;;
10313;SDS011;5202;49.138;10.090;2023-03-19T08:20:07;2.50;;;2.00;;
10313;SDS011;5202;49.138;10.090;2023-03-19T08:22:38;2.20;;;2.00;;
10313;SDS011;5202;49.138;10.090;2023-03-19T08:25:07;2.97;;;2.23;;
10313;SDS011;5202;49.138;10.090;2023-03-19T08:27:36;2.60;;;2.00;;
10313;SDS011;5202;49.138;10.090;2023-03-19T08:30:05;5.83;;;2.33;;
10313;SDS011;5202;49.138;10.090;2023-03-19T08:32:37;3.27;;;2.40;;
10313;SDS011;5202;49.138;10.090;2023-03-19T08:35:06;2.20;;;2.00;;
10313;SDS011;5202;49.138;10.090;2023-03-19T08:37:35;3.60;;;2.07;;
10313;SDS011;5202;49.138;10.090;2023-03-19T08:40:04;2.70;;;2.07;;
10313;SDS011;5202;49.138;10.090;2023-03-19T08:42:34;4.77;;;2.33;;
10313;SDS011;5202;49.138;10.090;2023-03-19T08:45:04;5.03;;;2.30;;
10313;SDS011;5202;49.138;10.090;2023-03-19T08:47:35;3.97;;;2.40;;
10313;SDS011;5202;49.138;10.090;2023-03-19T08:50:04;3.50;;;2.23;;
10313;SDS011;5202;49.138;10.090;2023-03-19T08:52:33;2.30;;;2.10;;
10313;SDS011;5202;49.138;10.090;2023-03-19T08:55:03;4.83;;;2.20;;
10313;SDS011;5202;49.138;10.090;2023-03-19T08:57:32;2.30;;;2.10;;
10313;SDS011;5202;49.138;10.090;2023-03-19T09:00:02;3.13;;;2.50;;
10313;SDS011;5202;49.138;10.090;2023-03-19T09:02:31;5.20;;;2.30;;
10313;SDS011;5202;49.138;10.090;2023-03-19T09:05:00;2.40;;;2.20;;
10313;SDS011;5202;49.138;10.090;2023-03-19T09:07:28;3.33;;;2.10;;
10313;SDS011;5202;49.138;10.090;2023-03-19T09:09:57;3.87;;;2.20;;
10313;SDS011;5202;49.138;10.090;2023-03-19T09:12:25;2.33;;;2.00;;
10313;SDS011;5202;49.138;10.090;2023-03-19T09:14:53;2.60;;;2.00;;
10313;SDS011;5202;49.138;10.090;2023-03-19T09:17:21;2.33;;;2.13;;
10313;SDS011;5202;49.138;10.090;2023-03-19T09:19:50;2.60;;;2.00;;
10313;SDS011;5202;49.138;10.090;2023-03-19T09:22:19;2.20;;;2.00;;
10313;SDS011;5202;49.138;10.090;2023-03-19T09:24:47;3.47;;;2.27;;
10313;SDS011;5202;49.138;10.090;2023-03-19T09:27:16;4.17;;;2.00;;
10313;SDS011;5202;49.138;10.090;2023-03-19T09:29:45;2.20;;;2.00;;
10313;SDS011;5202;49.138;10.090;2023-03-19T09:32:13;2.67;;;1.87;;
10313;SDS011;5202;49.138;10.090;2023-03-19T09:34:41;3.63;;;1.80;;
10313;SDS011;5202;49.138;10.090;2023-03-19T09:37:09;3.20;;;1.83;;
10313;SDS011;5202;49.138;10.090;2023-03-19T09:39:39;3.40;;;2.47;;
10313;SDS011;5202;49.138;10.090;2023-03-19T09:42:12;4.60;;;2.43;;
10313;SDS011;5202;49.138;10.090;2023-03-19T09:44:53;3.73;;;2.27;;
10313;SDS011;5202;49.138;10.090;2023-03-19T09:47:23;2.47;;;1.90;;
10313;SDS011;5202;49.138;10.090;2023-03-19T09:49:54;2.63;;;2.10;;
10313;SDS011;5202;49.138;10.090;2023-03-19T09:52:29;2.60;;;2.03;;
10313;SDS011;5202;49.138;10.090;2023-03-19T09:55:09;3.50;;;1.83;;
10313;SDS011;5202;49.138;10.090;2023-03-19T09:57:45;1.93;;;1.70;;
10313;SDS011;5202;49.138;10.090;2023-03-19T10:00:18;2.23;;;1.80;;
10313;SDS011;5202;49.138;10.090;2023-03-19T10:02:51;2.90;;;1.60;;
10313;SDS011;5202;49.138;10.090;2023-03-19T10:05:31;2.87;;;1.80;;
10313;SDS011;5202;49.138;10.090;2023-03-19T10:08:16;3.07;;;2.07;;
10313;SDS011;5202;49.138;10.090;2023-03-19T10:11:03;1.90;;;1.70;;
10313;SDS011;5202;49.138;10.090;2023-03-19T10:13:48;2.33;;;1.53;;
10313;SDS011;5202;49.138;10.090;2023-03-19T10:16:26;1.53;;;1.43;;
10313;SDS011;5202;49.138;10.090;2023-03-19T10:18:57;4.67;;;1.83;;
10313;SDS011;5202;49.138;10.090;2023-03-19T10:21:28;2.10;;;1.63;;
10313;SDS011;5202;49.138;10.090;2023-03-19T10:24:00;1.50;;;1.30;;
10313;SDS011;5202;49.138;10.090;2023-03-19T10:26:34;3.43;;;1.60;;
10313;SDS011;5202;49.138;10.090;2023-03-19T10:29:03;3.73;;;2.00;;
10313;SDS011;5202;49.138;10.090;2023-03-19T10:31:46;2.03;;;1.77;;
10313;SDS011;5202;49.138;10.090;2023-03-19T10:34:22;2.50;;;1.80;;
10313;SDS011;5202;49.138;10.090;2023-03-19T10:36:58;1.93;;;1.70;;
10313;SDS011;5202;49.138;10.090;2023-03-19T10:39:30;2.57;;;1.97;;
10313;SDS011;5202;49.138;10.090;2023-03-19T10:42:12;2.23;;;1.63;;
10313;SDS011;5202;49.138;10.090;2023-03-19T10:44:59;5.00;;;2.33;;
10313;SDS011;5202;49.138;10.090;2023-03-19T10:47:34;2.03;;;1.47;;
10313;SDS011;5202;49.138;10.090;2023-03-19T10:50:06;2.00;;;1.77;;
10313;SDS011;5202;49.138;10.090;2023-03-19T10:52:42;3.73;;;2.00;;
10313;SDS011;5202;49.138;10.090;2023-03-19T10:55:12;1.97;;;1.77;;
10313;SDS011;5202;49.138;10.090;2023-03-19T10:57:45;3.97;;;1.80;;
10313;SDS011;5202;49.138;10.090;2023-03-19T11:00:18;3.23;;;2.07;;
10313;SDS011;5202;49.138;10.090;2023-03-19T11:02:53;2.20;;;1.80;;
10313;SDS011;5202;49.138;10.090;2023-03-19T11:05:23;1.70;;;1.60;;
10313;SDS011;5202;49.138;10.090;2023-03-19T11:07:56;2.75;;;1.75;;
10313;SDS011;5202;49.138;10.090;2023-03-19T11:10:28;3.63;;;1.83;;
10313;SDS011;5202;49.138;10.090;2023-03-19T11:13:02;2.95;;;1.42;;
10313;SDS011;5202;49.138;10.090;2023-03-19T11:15:34;4.28;;;1.70;;
10313;SDS011;5202;49.138;10.090;2023-03-19T11:18:05;2.17;;;1.70;;
10313;SDS011;5202;49.138;10.090;2023-03-19T11:20:41;3.20;;;1.40;;
10313;SDS011;5202;49.138;10.090;2023-03-19T11:23:19;2.95;;;1.70;;
10313;SDS011;5202;49.138;10.090;2023-03-19T11:25:48;3.92;;;1.50;;
10313;SDS011;5202;49.138;10.090;2023-03-19T11:28:20;3.13;;;1.60;;
10313;SDS011;5202;49.138;10.090;2023-03-19T11:30:54;3.33;;;1.70;;
10313;SDS011;5202;49.138;10.090;2023-03-19T11:33:35;4.20;;;1.90;;
10313;SDS011;5202;49.138;10.090;2023-03-19T11:36:25;1.35;;;1.20;;
10313;SDS011;5202;49.138;10.090;2023-03-19T11:39:02;2.80;;;1.70;;
10313;SDS011;5202;49.138;10.090;2023-03-19T11:41:51;2.45;;;1.60;;
10313;SDS011;5202;49.138;10.090;2023-03-19T11:44:41;3.33;;;1.63;;
10313;SDS011;5202;49.138;10.090;2023-03-19T11:47:23;3.60;;;1.40;;
10313;SDS011;5202;49.138;10.090;2023-03-19T11:50:00;2.85;;;1.48;;
10313;SDS011;5202;49.138;10.090;2023-03-19T11:52:50;3.30;;;1.50;;
10313;SDS011;5202;49.138;10.090;2023-03-19T11:55:36;3.72;;;1.63;;
10313;SDS011;5202;49.138;10.090;2023-03-19T11:58:24;2.17;;;1.42;;
10313;SDS011;5202;49.138;10.090;2023-03-19T12:01:14;1.27;;;1.08;;
10313;SDS011;5202;49.138;10.090;2023-03-19T12:04:15;2.28;;;1.33;;
10313;SDS011;5202;49.138;10.090;2023-03-19T12:07:05;3.45;;;1.50;;
10313;SDS011;5202;49.138;10.090;2023-03-19T12:09:44;4.55;;;1.38;;
10313;SDS011;5202;49.138;10.090;2023-03-19T12:12:23;2.20;;;1.30;;
10313;SDS011;5202;49.138;10.090;2023-03-19T12:15:01;1.50;;;1.30;;
10313;SDS011;5202;49.138;10.090;2023-03-19T12:17:45;2.42;;;1.20;;
10313;SDS011;5202;49.138;10.090;2023-03-19T12:20:28;1.20;;;1.05;;
10313;SDS011;5202;49.138;10.090;2023-03-19T12:23:05;1.42;;;1.23;;
10313;SDS011;5202;49.138;10.090;2023-03-19T12:25:42;1.77;;;1.33;;
10313;SDS011;5202;49.138;10.090;2023-03-19T12:28:30;1.85;;;1.35;;
10313;SDS011;5202;49.138;10.090;2023-03-19T12:34:15;1.65;;;1.30;;
10313;SDS011;5202;49.138;10.090;2023-03-19T12:36:52;2.30;;;1.50;;
10313;SDS011;5202;49.138;10.090;2023-03-19T12:39:40;2.47;;;1.30;;
10313;SDS011;5202;49.138;10.090;2023-03-19T12:42:36;4.10;;;1.40;;
10313;SDS011;5202;49.138;10.090;2023-03-19T12:45:11;5.20;;;1.60;;
10313;SDS011;5202;49.138;10.090;2023-03-19T12:47:52;3.33;;;1.52;;
10313;SDS011;5202;49.138;10.090;2023-03-19T12:50:26;2.25;;;1.20;;
10313;SDS011;5202;49.138;10.090;2023-03-19T12:52:59;3.10;;;1.40;;
10313;SDS011;5202;49.138;10.090;2023-03-19T12:55:34;2.05;;;1.30;;
10313;SDS011;5202;49.138;10.090;2023-03-19T12:58:11;1.20;;;1.10;;
10313;SDS011;5202;49.138;10.090;2023-03-19T13:00:47;2.38;;;1.10;;
10313;SDS011;5202;49.138;10.090;2023-03-19T13:03:22;1.70;;;1.10;;
10313;SDS011;5202;49.138;10.090;2023-03-19T13:06:16;1.70;;;1.25;;
10313;SDS011;5202;49.138;10.090;2023-03-19T13:08:51;2.22;;;1.10;;
10313;SDS011;5202;49.138;10.090;2023-03-19T13:11:31;3.15;;;1.40;;
10313;SDS011;5202;49.138;10.090;2023-03-19T13:14:09;1.83;;;1.30;;
10313;SDS011;5202;49.138;10.090;2023-03-19T13:16:45;1.25;;;1.10;;
10313;SDS011;5202;49.138;10.090;2023-03-19T13:19:24;1.92;;;1.10;;
10313;SDS011;5202;49.138;10.090;2023-03-19T13:21:59;1.30;;;1.20;;
10313;SDS011;5202;49.138;10.090;2023-03-19T13:24:33;1.88;;;1.20;;
10313;SDS011;5202;49.138;10.090;2023-03-19T13:27:05;3.60;;;1.60;;
10313;SDS011;5202;49.138;10.090;2023-03-19T13:29:36;3.72;;;1.33;;
10313;SDS011;5202;49.138;10.090;2023-03-19T13:32:23;1.88;;;1.30;;
10313;SDS011;5202;49.138;10.090;2023-03-19T13:35:07;3.53;;;1.67;;
10313;SDS011;5202;49.138;10.090;2023-03-19T13:38:00;1.77;;;1.67;;
10313;SDS011;5202;49.138;10.090;2023-03-19T13:40:37;1.38;;;1.20;;
10313;SDS011;5202;49.138;10.090;2023-03-19T13:46:35;2.28;;;1.52;;
10313;SDS011;5202;49.138;10.090;2023-03-19T13:49:23;2.47;;;1.42;;
10313;SDS011;5202;49.138;10.090;2023-03-19T13:52:02;3.70;;;1.63;;
10313;SDS011;5202;49.138;10.090;2023-03-19T13:55:27;2.55;;;1.40;;
10313;SDS011;5202;49.138;10.090;2023-03-19T13:58:13;2.72;;;1.40;;
10313;SDS011;5202;49.138;10.090;2023-03-19T14:00:59;2.60;;;1.42;;
10313;SDS011;5202;49.138;10.090;2023-03-19T14:03:28;4.10;;;1.50;;
10313;SDS011;5202;49.138;10.090;2023-03-19T14:05:58;3.38;;;1.70;;
10313;SDS011;5202;49.138;10.090;2023-03-19T14:08:28;1.45;;;1.35;;
10313;SDS011;5202;49.138;10.090;2023-03-19T14:11:10;1.70;;;1.33;;
10313;SDS011;5202;49.138;10.090;2023-03-19T14:13:50;2.75;;;1.75;;
10313;SDS011;5202;49.138;10.090;2023-03-19T14:16:21;1.67;;;1.40;;
10313;SDS011;5202;49.138;10.090;2023-03-19T14:18:54;2.45;;;1.58;;
10313;SDS011;5202;49.138;10.090;2023-03-19T14:21:32;2.85;;;1.50;;
10313;SDS011;5202;49.138;10.090;2023-03-19T14:24:28;4.03;;;1.70;;
10313;SDS011;5202;49.138;10.090;2023-03-19T14:27:25;1.95;;;1.40;;
10313;SDS011;5202;49.138;10.090;2023-03-19T14:29:58;3.13;;;1.65;;
10313;SDS011;5202;49.138;10.090;2023-03-19T14:32:36;2.63;;;1.55;;
10313;SDS011;5202;49.138;10.090;2023-03-19T14:35:09;2.42;;;1.58;;
10313;SDS011;5202;49.138;10.090;2023-03-19T14:37:45;2.45;;;2.25;;
10313;SDS011;5202;49.138;10.090;2023-03-19T14:40:16;4.13;;;1.77;;
10313;SDS011;5202;49.138;10.090;2023-03-19T14:42:54;3.53;;;1.80;;
10313;SDS011;5202;49.138;10.090;2023-03-19T14:45:34;3.20;;;1.80;;
10313;SDS011;5202;49.138;10.090;2023-03-19T14:48:29;2.38;;;1.60;;
10313;SDS011;5202;49.138;10.090;2023-03-19T14:51:28;3.15;;;1.50;;
10313;SDS011;5202;49.138;10.090;2023-03-19T14:54:26;3.60;;;1.60;;
10313;SDS011;5202;49.138;10.090;2023-03-19T14:57:05;15.52;;;8.75;;
10313;SDS011;5202;49.138;10.090;2023-03-19T14:59:38;3.65;;;2.75;;
10313;SDS011;5202;49.138;10.090;2023-03-19T15:02:16;3.30;;;1.90;;
10313;SDS011;5202;49.138;10.090;2023-03-19T15:05:08;3.05;;;1.83;;
10313;SDS011;5202;49.138;10.090;2023-03-19T15:07:42;2.30;;;2.10;;
10313;SDS011;5202;49.138;10.090;2023-03-19T15:10:14;4.30;;;2.13;;
10313;SDS011;5202;49.138;10.090;2023-03-19T15:18:36;3.38;;;1.70;;
10313;SDS011;5202;49.138;10.090;2023-03-19T15:21:05;3.30;;;1.90;;
10313;SDS011;5202;49.138;10.090;2023-03-19T15:23:33;3.17;;;2.00;;
10313;SDS011;5202;49.138;10.090;2023-03-19T15:26:02;2.30;;;1.80;;
10313;SDS011;5202;49.138;10.090;2023-03-19T15:28:46;4.18;;;1.90;;
10313;SDS011;5202;49.138;10.090;2023-03-19T15:31:17;3.58;;;1.95;;
10313;SDS011;5202;49.138;10.090;2023-03-19T15:34:16;2.40;;;2.20;;
10313;SDS011;5202;49.138;10.090;2023-03-19T15:36:47;3.72;;;2.40;;
10313;SDS011;5202;49.138;10.090;2023-03-19T15:39:20;3.77;;;2.60;;
10313;SDS011;5202;49.138;10.090;2023-03-19T15:41:51;4.43;;;2.43;;
10313;SDS011;5202;49.138;10.090;2023-03-19T15:44:22;3.80;;;2.90;;